createdAt,value
2023-03-09T00:02:42.234Z,22.90
2023-03-09T00:07:45.099Z,21.08
2023-03-09T00:12:46.497Z,24.42
2023-03-09T00:17:47.830Z,24.55
2023-03-09T00:22:50.913Z,22.50
2023-03-09T00:27:53.721Z,21.25
2023-03-09T00:32:55.212Z,21.23
2023-03-09T00:37:56.714Z,23.60
2023-03-09T00:42:58.082Z,20.95
2023-03-09T00:47:59.445Z,21.02
2023-03-09T00:53:00.810Z,22.67
2023-03-09T00:58:02.243Z,20.42
2023-03-09T01:03:04.097Z,20.13
2023-03-09T01:08:05.499Z,19.05
2023-03-09T01:13:06.937Z,19.00
2023-03-09T01:18:08.497Z,19.15
2023-03-09T01:23:09.882Z,17.13
2023-03-09T01:28:11.761Z,15.60
2023-03-09T01:33:13.180Z,13.30
2023-03-09T01:38:14.629Z,10.02
2023-03-09T01:43:36.075Z,9.63
2023-03-09T01:48:37.536Z,7.70
2023-03-09T01:53:39.317Z,6.00
2023-03-09T01:58:40.769Z,8.85
2023-03-09T02:03:47.680Z,7.38
2023-03-09T02:08:56.478Z,8.50
2023-03-09T02:13:58.818Z,11.30
2023-03-09T02:19:00.349Z,12.13
2023-03-09T02:24:14.570Z,12.15
2023-03-09T02:29:16.710Z,10.82
2023-03-09T02:34:18.065Z,10.80
2023-03-09T02:39:35.256Z,11.35
2023-03-09T02:44:36.774Z,9.13
2023-03-09T02:49:38.648Z,11.38
2023-03-09T02:54:40.017Z,10.30
2023-03-09T02:59:41.440Z,8.18
2023-03-09T03:04:43.427Z,6.47
2023-03-09T03:09:44.948Z,6.78
2023-03-09T03:14:46.330Z,6.05
2023-03-09T03:19:47.984Z,6.15
2023-03-09T03:24:49.594Z,5.07
2023-03-09T03:29:53.972Z,3.92
2023-03-09T03:34:55.461Z,4.32
2023-03-09T03:39:57.019Z,4.55
2023-03-09T03:44:58.403Z,2.20
2023-03-09T03:49:59.721Z,1.50
2023-03-09T03:55:01.067Z,1.33
2023-03-09T04:00:05.904Z,1.27
2023-03-09T04:05:08.146Z,0.80
2023-03-09T04:10:10.084Z,0.57
2023-03-09T04:15:11.874Z,0.82
2023-03-09T04:20:13.371Z,0.57
2023-03-09T04:25:16.098Z,0.40
2023-03-09T04:30:21.299Z,0.30
2023-03-09T04:35:23.117Z,0.50
2023-03-09T04:40:24.489Z,0.28
2023-03-09T04:45:25.913Z,0.25
2023-03-09T04:50:27.386Z,0.15
2023-03-09T04:55:28.883Z,0.30
2023-03-09T05:00:30.885Z,0.30
2023-03-09T05:05:32.233Z,0.40
2023-03-09T05:10:33.576Z,0.10
2023-03-09T05:15:35.048Z,0.20
2023-03-09T05:20:38.980Z,0.20
2023-03-09T05:25:40.335Z,0.20
2023-03-09T05:30:41.756Z,0.20
2023-03-09T05:35:43.187Z,0.40
2023-03-09T05:40:44.650Z,0.60
2023-03-09T05:45:54.563Z,0.20
2023-03-09T05:51:00.643Z,0.30
2023-03-09T05:56:02.290Z,0.60
2023-03-09T06:01:03.727Z,0.30
2023-03-09T06:06:06.465Z,0.75
2023-03-09T06:11:08.231Z,0.93
2023-03-09T06:16:14.104Z,0.40
2023-03-09T06:21:15.549Z,0.50
2023-03-09T06:26:17.472Z,0.73
2023-03-09T06:31:20.254Z,0.47
2023-03-09T06:36:21.781Z,0.88
2023-03-09T06:41:32.634Z,1.60
2023-03-09T06:46:34.056Z,0.40
2023-03-09T06:51:35.459Z,0.60
2023-03-09T06:56:36.818Z,0.65
2023-03-09T07:01:38.375Z,0.73
2023-03-09T07:06:39.718Z,0.55
2023-03-09T07:11:41.061Z,0.80
2023-03-09T07:16:42.472Z,0.50
2023-03-09T07:21:43.918Z,0.77
2023-03-09T07:26:47.705Z,1.20
2023-03-09T07:31:49.216Z,1.60
2023-03-09T07:36:50.880Z,0.80
2023-03-09T07:41:52.358Z,1.10
2023-03-09T07:46:53.816Z,1.30
2023-03-09T07:51:57.134Z,1.27
2023-03-09T07:56:58.584Z,1.20
2023-03-09T08:01:59.989Z,2.42
2023-03-09T08:07:01.317Z,1.67
2023-03-09T08:12:02.729Z,2.15
2023-03-09T08:17:04.896Z,1.65
2023-03-09T08:22:06.225Z,1.65
2023-03-09T08:27:07.624Z,1.60
2023-03-09T08:32:10.650Z,2.38
2023-03-09T08:37:12.112Z,1.90
2023-03-09T08:42:13.524Z,2.55
2023-03-09T08:47:14.926Z,1.30
2023-03-09T08:52:16.259Z,1.02
2023-03-09T08:57:18.575Z,1.40
2023-03-09T09:02:20.179Z,1.08
2023-03-09T09:07:21.965Z,0.77
2023-03-09T09:12:23.290Z,0.88
2023-03-09T09:17:24.726Z,0.70
2023-03-09T09:22:26.895Z,0.82
2023-03-09T09:27:29.129Z,0.60
2023-03-09T09:32:30.559Z,0.85
2023-03-09T09:37:32.593Z,0.70
2023-03-09T09:42:38.895Z,0.77
2023-03-09T09:47:40.301Z,0.43
2023-03-09T09:53:04.553Z,0.40
2023-03-09T09:58:20.930Z,1.27
2023-03-09T10:03:32.415Z,0.30
2023-03-09T10:09:01.641Z,0.50
2023-03-09T10:14:25.370Z,0.40
2023-03-09T10:19:34.558Z,0.60
2023-03-09T10:24:48.283Z,0.47
2023-03-09T10:30:11.159Z,0.90
2023-03-09T10:35:22.782Z,0.40
2023-03-09T10:40:36.556Z,0.50
2023-03-09T10:45:37.883Z,0.40
2023-03-09T10:50:54.622Z,0.38
2023-03-09T10:56:06.683Z,0.50
2023-03-09T11:01:17.405Z,0.22
2023-03-09T11:06:35.893Z,0.43
2023-03-09T11:11:38.140Z,0.50
2023-03-09T11:16:51.139Z,0.75
2023-03-09T11:21:57.925Z,1.20
2023-03-09T11:27:07.353Z,0.20
2023-03-09T11:32:13.620Z,0.30
2023-03-09T11:37:22.324Z,1.05
2023-03-09T11:42:38.396Z,0.50
2023-03-09T11:47:43.884Z,0.30
2023-03-09T11:52:51.014Z,0.20
2023-03-09T11:57:59.318Z,0.57
2023-03-09T12:03:13.837Z,0.25
2023-03-09T12:08:20.876Z,0.28
2023-03-09T12:13:34.365Z,0.55
2023-03-09T12:18:39.525Z,0.55
2023-03-09T12:23:47.969Z,0.55
2023-03-09T12:28:59.546Z,0.30
2023-03-09T12:34:00.932Z,0.22
2023-03-09T12:39:24.179Z,0.57
2023-03-09T12:44:44.020Z,0.30
2023-03-09T12:49:49.213Z,0.40
2023-03-09T12:54:57.080Z,0.40
2023-03-09T13:00:20.944Z,0.68
2023-03-09T13:05:28.070Z,0.40
2023-03-09T13:10:33.142Z,1.42
2023-03-09T13:15:34.534Z,1.00
2023-03-09T13:20:37.837Z,0.30
2023-03-09T13:25:46.962Z,1.55
2023-03-09T13:30:49.488Z,0.40
2023-03-09T13:36:20.814Z,0.40
2023-03-09T13:41:26.811Z,0.50
2023-03-09T13:46:31.471Z,0.40
2023-03-09T13:51:40.166Z,0.50
2023-03-09T13:56:41.537Z,0.52
2023-03-09T14:01:43.149Z,0.45
2023-03-09T14:07:16.065Z,0.50
2023-03-09T14:12:06.447Z,0.45
2023-03-09T14:17:18.662Z,0.57
2023-03-09T14:22:26.242Z,1.17
2023-03-09T14:27:34.718Z,0.50
2023-03-09T14:32:36.191Z,0.85
2023-03-09T14:37:37.735Z,0.40
2023-03-09T14:42:39.179Z,0.35
2023-03-09T14:47:41.738Z,0.85
2023-03-09T14:52:43.908Z,0.35
2023-03-09T14:57:45.759Z,0.40
2023-03-09T15:02:48.400Z,0.55
2023-03-09T15:07:49.984Z,0.30
2023-03-09T15:12:51.948Z,0.68
2023-03-09T15:17:56.745Z,0.52
2023-03-09T15:22:58.124Z,0.30
2023-03-09T15:27:59.478Z,0.30
2023-03-09T15:33:00.910Z,0.30
2023-03-09T15:38:02.325Z,0.38
2023-03-09T15:43:03.728Z,0.50
2023-03-09T15:48:05.333Z,0.45
2023-03-09T15:53:08.133Z,0.43
2023-03-09T15:58:09.495Z,0.47
2023-03-09T16:03:10.824Z,0.55
2023-03-09T16:08:12.241Z,0.73
2023-03-09T16:13:16.576Z,0.82
2023-03-09T16:18:19.212Z,1.40
2023-03-09T16:23:20.653Z,0.90
2023-03-09T16:28:23.046Z,1.10
2023-03-09T16:33:24.452Z,0.68
2023-03-09T16:38:26.034Z,1.02
2023-03-09T16:43:27.540Z,0.85
2023-03-09T16:48:28.954Z,0.80
2023-03-09T16:53:32.128Z,0.95
2023-03-09T16:58:35.210Z,1.30
2023-03-09T17:03:36.545Z,0.93
2023-03-09T17:08:37.916Z,2.35
2023-03-09T17:13:42.003Z,1.10
2023-03-09T17:18:43.893Z,1.27
2023-03-09T17:23:45.284Z,1.35
2023-03-09T17:28:47.537Z,1.85
2023-03-09T17:33:49.027Z,1.20
2023-03-09T17:38:52.625Z,0.88
2023-03-09T17:43:54.081Z,1.23
2023-03-09T17:48:55.807Z,1.20
2023-03-09T17:53:57.156Z,1.30
2023-03-09T17:58:58.706Z,1.30
2023-03-09T18:04:00.726Z,1.98
2023-03-09T18:09:02.162Z,1.75
2023-03-09T18:14:04.557Z,1.52
2023-03-09T18:19:07.977Z,1.77
2023-03-09T18:24:10.377Z,1.35
2023-03-09T18:29:11.844Z,1.67
2023-03-09T18:34:13.232Z,1.85
2023-03-09T18:39:15.078Z,1.50
2023-03-09T18:44:16.444Z,1.45
2023-03-09T18:49:17.839Z,1.23
2023-03-09T18:54:19.199Z,1.42
2023-03-09T18:59:20.667Z,1.58
2023-03-09T19:04:24.440Z,2.38
2023-03-09T19:09:25.975Z,2.28
2023-03-09T19:14:27.984Z,1.70
2023-03-09T19:19:29.446Z,2.33
2023-03-09T19:24:30.839Z,1.75
2023-03-09T19:29:32.253Z,1.60
2023-03-09T19:34:33.672Z,2.40
2023-03-09T19:39:40.873Z,1.90
2023-03-09T19:44:45.351Z,1.88
2023-03-09T19:49:48.292Z,2.67
2023-03-09T19:54:49.831Z,1.30
2023-03-09T19:59:51.361Z,1.15
2023-03-09T20:04:52.750Z,1.38
2023-03-09T20:09:54.282Z,1.48
2023-03-09T20:14:55.787Z,2.22
2023-03-09T20:20:01.340Z,1.85
2023-03-09T20:25:02.835Z,1.85
2023-03-09T20:30:04.737Z,2.17
2023-03-09T20:35:06.663Z,2.30
2023-03-09T20:40:08.712Z,1.73
2023-03-09T20:45:12.150Z,1.10
2023-03-09T20:50:14.543Z,1.83
2023-03-09T20:55:17.265Z,1.38
2023-03-09T21:00:19.143Z,1.40
2023-03-09T21:05:20.575Z,1.05
2023-03-09T21:10:22.298Z,1.85
2023-03-09T21:15:24.275Z,3.10
2023-03-09T21:20:25.736Z,1.63
2023-03-09T21:25:27.190Z,2.10
2023-03-09T21:30:28.570Z,2.20
2023-03-09T21:35:29.934Z,1.52
2023-03-09T21:40:31.291Z,0.93
2023-03-09T21:45:32.613Z,1.33
2023-03-09T21:50:33.938Z,0.55
2023-03-09T21:55:37.431Z,0.80
2023-03-09T22:00:40.053Z,0.50
2023-03-09T22:05:42.711Z,0.50
2023-03-09T22:10:44.598Z,1.00
2023-03-09T22:15:45.955Z,0.45
2023-03-09T22:20:47.392Z,0.63
2023-03-09T22:25:48.748Z,0.80
2023-03-09T22:30:50.129Z,0.40
2023-03-09T22:36:03.905Z,0.98
2023-03-09T22:41:07.836Z,0.47
2023-03-09T22:46:15.966Z,1.38
2023-03-09T22:51:20.559Z,0.45
2023-03-09T22:56:23.422Z,0.50
2023-03-09T23:01:30.503Z,0.60
2023-03-09T23:06:32.326Z,0.35
2023-03-09T23:11:41.391Z,1.48
2023-03-09T23:16:43.187Z,0.47
2023-03-09T23:21:47.383Z,0.55
2023-03-09T23:26:54.101Z,0.90
2023-03-09T23:31:55.526Z,0.20
2023-03-09T23:36:56.937Z,0.30
2023-03-09T23:41:58.513Z,1.33
2023-03-09T23:46:59.846Z,0.40
2023-03-09T23:52:01.242Z,0.60
2023-03-09T23:57:02.623Z,0.60
